Time;durP1;ratioP1;P1;durP2;ratioP2;P2;SDS_P1;SDS_P2;PMS_P1;PMS_P2;Temp;Humidity;BMP_temperature;BMP_pressure;BME280_temperature;BME280_humidity;BME280_pressure;Samples;Min_cycle;Max_cycle;Signal;HPM_P1;HPM_P2
2021/01/04 00:01:04;;;;;;;14.85;9.02;;;3.20;93.30;;;;;;5021226;28;20454;-90
2021/01/04 00:03:54;;;;;;;16.05;9.52;;;3.20;93.30;;;;;;4984720;28;20026;-91
2021/01/04 00:06:37;;;;;;;13.93;9.32;;;3.20;93.30;;;;;;4966816;28;20549;-90
2021/01/04 00:09:21;;;;;;;15.73;10.02;;;3.20;93.40;;;;;;4972773;28;20034;-90
2021/01/04 00:12:08;;;;;;;15.40;9.23;;;3.20;93.50;;;;;;4985763;28;20026;-90
2021/01/04 00:14:52;;;;;;;14.18;8.82;;;3.20;93.50;;;;;;4985851;28;20027;-90
2021/01/04 00:17:36;;;;;;;15.98;9.65;;;3.20;93.60;;;;;;4974510;28;20039;-90
2021/01/04 00:20:32;;;;;;;16.67;10.07;;;3.10;93.60;;;;;;4962756;28;20515;-91
2021/01/04 00:23:35;;;;;;;19.88;10.05;;;3.10;93.60;;;;;;4983802;28;20029;-91
2021/01/04 00:26:13;;;;;;;13.95;9.15;;;3.20;93.70;;;;;;4975088;28;20117;-91
2021/01/04 00:28:39;;;;;;;17.67;9.98;;;3.20;93.80;;;;;;4979236;28;20118;-90
2021/01/04 00:31:10;;;;;;;18.35;10.20;;;3.20;93.80;;;;;;4973650;28;20026;-90
2021/01/04 00:33:47;;;;;;;16.35;10.75;;;3.20;93.80;;;;;;4969627;28;20035;-91
2021/01/04 00:36:25;;;;;;;20.45;11.48;;;3.20;93.90;;;;;;4976962;28;20042;-90
2021/01/04 00:39:02;;;;;;;18.40;10.85;;;3.20;93.90;;;;;;4974944;28;20037;-91
2021/01/04 00:41:53;;;;;;;21.48;11.57;;;3.20;94.00;;;;;;4982813;28;20050;-90
2021/01/04 00:44:34;;;;;;;19.23;10.68;;;3.20;94.00;;;;;;4974123;28;20034;-90
2021/01/04 00:47:26;;;;;;;20.95;12.00;;;3.20;94.00;;;;;;4966371;28;20027;-91
2021/01/04 00:50:01;;;;;;;18.50;10.32;;;3.20;94.00;;;;;;4973375;28;20148;-90
2021/01/04 00:52:42;;;;;;;18.10;11.05;;;3.20;94.00;;;;;;4975861;28;20031;-91
2021/01/04 00:55:34;;;;;;;19.92;10.65;;;3.20;94.10;;;;;;4978663;28;20039;-90
2021/01/04 00:58:16;;;;;;;21.23;10.93;;;3.20;94.10;;;;;;4974900;28;20033;-90
2021/01/04 01:00:58;;;;;;;18.52;10.50;;;3.20;94.10;;;;;;5006144;28;20058;-90
2021/01/04 01:03:44;;;;;;;18.70;10.75;;;3.20;94.20;;;;;;4971723;28;20034;-90
2021/01/04 01:06:24;;;;;;;17.30;11.00;;;3.20;94.20;;;;;;4973401;28;20077;-91
2021/01/04 01:08:54;;;;;;;20.50;11.93;;;3.20;94.20;;;;;;4988489;28;20058;-90
2021/01/04 01:11:47;;;;;;;18.60;11.15;;;3.20;94.20;;;;;;4981096;28;20117;-90
2021/01/04 01:14:40;;;;;;;21.17;11.95;;;3.20;94.20;;;;;;4979705;28;20463;-91
2021/01/04 01:17:18;;;;;;;17.77;10.20;;;3.20;94.20;;;;;;4982934;28;20050;-90
2021/01/04 01:19:48;;;;;;;20.42;11.23;;;3.20;94.20;;;;;;4981684;28;20529;-91
2021/01/04 01:22:29;;;;;;;19.13;11.10;;;3.20;94.50;;;;;;4975457;28;20026;-90
2021/01/04 01:24:58;;;;;;;21.88;11.30;;;3.30;94.20;;;;;;4973364;28;20574;-91
2021/01/04 01:27:59;;;;;;;19.30;10.60;;;3.20;94.10;;;;;;4984654;28;20541;-91
2021/01/04 01:30:50;;;;;;;17.08;11.00;;;3.30;94.10;;;;;;4988403;28;20031;-91
2021/01/04 01:33:30;;;;;;;20.17;10.85;;;3.30;94.10;;;;;;4989160;28;20037;-91
2021/01/04 01:36:28;;;;;;;19.45;11.38;;;3.30;94.10;;;;;;4979669;28;20072;-90
2021/01/04 01:39:17;;;;;;;20.40;11.70;;;3.30;94.10;;;;;;4984869;28;20509;-91
2021/01/04 01:42:12;;;;;;;20.92;10.80;;;3.30;94.10;;;;;;4984208;28;20061;-90
2021/01/04 01:44:47;;;;;;;19.05;11.50;;;3.20;94.10;;;;;;4977056;28;20088;-91
2021/01/04 01:47:28;;;;;;;20.73;11.90;;;3.20;94.10;;;;;;4972233;28;20502;-89
2021/01/04 01:50:00;;;;;;;17.92;10.57;;;3.20;94.10;;;;;;4991327;28;20034;-90
2021/01/04 01:52:57;;;;;;;16.98;10.25;;;3.20;94.10;;;;;;4970659;28;20023;-90
2021/01/04 01:55:47;;;;;;;15.55;9.60;;;3.20;94.10;;;;;;4949449;28;20048;-90
2021/01/04 01:58:41;;;;;;;18.92;11.02;;;3.10;94.10;;;;;;4979921;28;20065;-89
2021/01/04 02:01:33;;;;;;;18.83;11.07;;;3.10;94.10;;;;;;5012844;28;20050;-89
2021/01/04 02:04:18;;;;;;;17.30;10.27;;;3.10;94.10;;;;;;4978411;28;20033;-89
2021/01/04 02:07:03;;;;;;;18.85;10.45;;;3.10;94.20;;;;;;4975010;28;20034;-90
2021/01/04 02:09:42;;;;;;;21.13;9.73;;;3.00;94.30;;;;;;4985911;28;20399;-90
2021/01/04 02:12:32;;;;;;;14.05;8.75;;;3.00;94.30;;;;;;4970139;28;20031;-89
2021/01/04 02:15:19;;;;;;;17.48;9.70;;;3.00;94.30;;;;;;4972370;28;20117;-89
2021/01/04 02:18:06;;;;;;;16.58;10.55;;;3.00;94.40;;;;;;4973969;28;20503;-90
2021/01/04 02:21:25;;;;;;;16.67;10.20;;;3.00;94.30;;;;;;4980231;28;20064;-90
2021/01/04 02:24:12;;;;;;;12.40;9.13;;;3.00;94.30;;;;;;4952891;28;20035;-90
2021/01/04 02:26:45;;;;;;;14.88;8.45;;;3.00;94.30;;;;;;4971687;28;20114;-90
2021/01/04 02:29:16;;;;;;;13.80;7.90;;;3.00;94.30;;;;;;4989792;28;20066;-91
2021/01/04 02:31:48;;;;;;;11.73;7.35;;;2.90;94.30;;;;;;4987122;28;20406;-90
2021/01/04 02:34:15;;;;;;;10.82;7.05;;;3.00;94.30;;;;;;4972994;28;20100;-90
2021/01/04 02:36:58;;;;;;;12.40;6.47;;;2.90;94.30;;;;;;4984959;28;20050;-90
2021/01/04 02:39:38;;;;;;;10.80;6.88;;;2.90;94.20;;;;;;4971245;28;20027;-89
2021/01/04 02:42:20;;;;;;;11.30;7.22;;;2.90;94.20;;;;;;4985423;28;20390;-89
2021/01/04 02:44:46;;;;;;;10.50;6.95;;;2.90;94.30;;;;;;4985773;28;20026;-89
2021/01/04 02:47:19;;;;;;;7.78;4.78;;;2.90;94.30;;;;;;4986539;28;20497;-89
2021/01/04 02:50:03;;;;;;;13.30;7.55;;;2.90;94.20;;;;;;5005989;28;20054;-90
2021/01/04 02:53:00;;;;;;;10.30;6.45;;;2.90;94.20;;;;;;4977719;28;20031;-90
2021/01/04 02:56:03;;;;;;;8.70;5.88;;;2.90;94.20;;;;;;5005564;28;20046;-90
2021/01/04 02:58:49;;;;;;;8.50;6.07;;;2.80;94.20;;;;;;4989162;28;20395;-89
2021/01/04 03:01:23;;;;;;;9.60;5.80;;;2.80;94.50;;;;;;4975066;28;20051;-90
2021/01/04 03:03:48;;;;;;;8.68;4.60;;;2.80;94.20;;;;;;4973256;28;20040;-90
2021/01/04 03:06:22;;;;;;;8.55;5.45;;;2.80;94.20;;;;;;4992910;28;20027;-90
2021/01/04 03:08:47;;;;;;;9.05;6.30;;;2.80;94.20;;;;;;4979541;28;20468;-90
2021/01/04 03:11:15;;;;;;;9.65;6.10;;;2.80;94.20;;;;;;4985399;28;20023;-90
2021/01/04 03:13:41;;;;;;;11.25;6.68;;;2.80;94.20;;;;;;4975320;28;20027;-90
2021/01/04 03:16:21;;;;;;;14.50;8.13;;;2.80;94.30;;;;;;5007684;28;20125;-90
2021/01/04 03:18:51;;;;;;;12.15;7.28;;;2.80;94.30;;;;;;4975824;28;20026;-90
2021/01/04 03:21:17;;;;;;;10.45;7.07;;;2.80;94.30;;;;;;4971116;28;20031;-91
2021/01/04 03:23:47;;;;;;;10.75;6.93;;;2.80;94.30;;;;;;4972124;28;20031;-90
2021/01/04 03:26:18;;;;;;;11.93;7.85;;;2.80;94.30;;;;;;4976215;28;20113;-89
2021/01/04 03:28:43;;;;;;;9.98;6.80;;;2.70;94.30;;;;;;4968549;28;20023;-90
2021/01/04 03:31:11;;;;;;;10.73;7.15;;;2.70;94.30;;;;;;4971754;28;20080;-90
2021/01/04 03:33:36;;;;;;;10.52;6.65;;;2.70;94.30;;;;;;4975691;28;20110;-90
2021/01/04 03:36:02;;;;;;;11.57;6.82;;;2.70;94.30;;;;;;4978352;28;20498;-90
2021/01/04 03:38:27;;;;;;;11.68;7.25;;;2.70;94.30;;;;;;5002367;28;20031;-89
2021/01/04 03:40:53;;;;;;;7.63;4.32;;;2.70;94.30;;;;;;4974227;28;20058;-90
2021/01/04 03:43:19;;;;;;;10.77;7.47;;;2.70;94.40;;;;;;4980653;28;20052;-90
2021/01/04 03:45:44;;;;;;;11.18;6.75;;;2.60;94.40;;;;;;4976319;28;20368;-90
2021/01/04 03:48:11;;;;;;;9.52;6.30;;;2.70;94.40;;;;;;4974917;28;20099;-89
2021/01/04 03:50:36;;;;;;;11.57;7.13;;;2.70;94.40;;;;;;4972106;28;20491;-89
2021/01/04 03:53:03;;;;;;;9.02;6.25;;;2.60;94.40;;;;;;4982057;28;20034;-90
2021/01/04 03:55:29;;;;;;;10.20;6.63;;;2.70;94.50;;;;;;4974933;28;20435;-90
2021/01/04 03:57:54;;;;;;;11.45;6.68;;;2.60;94.50;;;;;;4973325;28;20065;-89
2021/01/04 04:00:21;;;;;;;9.75;6.35;;;2.60;94.50;;;;;;4979927;28;20143;-90
2021/01/04 04:02:48;;;;;;;11.75;6.80;;;2.60;94.50;;;;;;4971389;28;20027;-90
2021/01/04 04:05:16;;;;;;;9.90;6.80;;;2.60;94.60;;;;;;4974271;28;20062;-90
2021/01/04 04:07:42;;;;;;;9.75;6.25;;;2.60;94.70;;;;;;4984743;28;20019;-89
2021/01/04 04:10:09;;;;;;;11.43;6.47;;;2.60;94.70;;;;;;4975090;28;20117;-90
2021/01/04 04:12:35;;;;;;;13.77;7.47;;;2.60;94.80;;;;;;4970219;28;20023;-90
2021/01/04 04:15:01;;;;;;;12.82;8.30;;;2.60;94.80;;;;;;4975233;28;20043;-90
2021/01/04 04:17:26;;;;;;;10.57;6.65;;;2.60;94.80;;;;;;4974015;28;20471;-90
2021/01/04 04:19:52;;;;;;;11.52;7.55;;;2.70;94.90;;;;;;4974065;28;20027;-89
2021/01/04 04:22:18;;;;;;;11.15;7.25;;;2.70;94.90;;;;;;4974654;28;20054;-89
2021/01/04 04:24:45;;;;;;;10.45;6.57;;;2.70;94.90;;;;;;4974586;28;20077;-90
2021/01/04 04:27:12;;;;;;;9.80;6.53;;;2.70;94.90;;;;;;4987448;28;20022;-89
2021/01/04 04:29:38;;;;;;;10.93;7.20;;;2.70;94.90;;;;;;4973902;28;20031;-90
2021/01/04 04:32:05;;;;;;;11.43;7.60;;;2.70;94.90;;;;;;4968813;28;20019;-90
2021/01/04 04:34:31;;;;;;;12.50;7.38;;;2.70;94.90;;;;;;4994213;28;20046;-89
2021/01/04 04:36:56;;;;;;;11.48;7.13;;;2.80;95.00;;;;;;4980385;28;20034;-90
2021/01/04 04:39:22;;;;;;;9.07;6.22;;;2.80;95.00;;;;;;4973289;28;20031;-91
2021/01/04 04:41:50;;;;;;;12.80;7.55;;;2.80;95.00;;;;;;4962326;28;20031;-89
2021/01/04 04:44:40;;;;;;;11.07;7.68;;;2.80;94.90;;;;;;4975848;28;20022;-89
2021/01/04 04:47:10;;;;;;;11.43;7.53;;;2.80;94.90;;;;;;4997454;28;20034;-89
2021/01/04 04:49:47;;;;;;;10.05;6.03;;;2.80;94.90;;;;;;4975546;28;20023;-90
2021/01/04 04:52:47;;;;;;;10.60;6.95;;;2.80;94.90;;;;;;4978905;28;20055;-89
2021/01/04 04:55:31;;;;;;;10.73;7.47;;;2.80;94.90;;;;;;5007440;28;20073;-89
2021/01/04 04:58:29;;;;;;;10.82;7.00;;;2.80;94.90;;;;;;4974187;28;20027;-90
2021/01/04 05:01:15;;;;;;;9.20;5.78;;;2.80;94.90;;;;;;4969379;28;20064;-90
2021/01/04 05:03:52;;;;;;;10.52;6.95;;;2.80;94.90;;;;;;4989190;28;20118;-89
2021/01/04 05:06:33;;;;;;;9.82;6.50;;;2.80;94.90;;;;;;4989935;28;20550;-90
2021/01/04 05:09:33;;;;;;;10.95;6.40;;;2.80;94.90;;;;;;4957092;28;20487;-89
2021/01/04 05:12:21;;;;;;;10.88;7.43;;;2.80;94.80;;;;;;4973962;28;20037;-90
2021/01/04 05:14:55;;;;;;;10.70;6.55;;;2.80;94.80;;;;;;4977587;28;20388;-89
2021/01/04 05:17:42;;;;;;;8.75;6.90;;;2.80;94.90;;;;;;4975011;28;20039;-90
2021/01/04 05:20:45;;;;;;;9.23;5.50;;;2.80;94.80;;;;;;4973995;28;21029;-89
2021/01/04 05:23:46;;;;;;;8.90;6.03;;;2.80;94.80;;;;;;4973282;28;20031;-89
2021/01/04 05:26:37;;;;;;;8.80;5.85;;;2.80;94.80;;;;;;4973611;28;20038;-89
2021/01/04 05:29:34;;;;;;;9.05;6.10;;;2.80;94.80;;;;;;4995118;28;20027;-89
2021/01/04 05:32:35;;;;;;;10.32;6.15;;;2.80;94.90;;;;;;4973033;28;20043;-89
2021/01/04 05:35:04;;;;;;;10.35;6.43;;;2.80;94.90;;;;;;5007260;28;20027;-90
2021/01/04 05:37:51;;;;;;;10.38;6.72;;;2.80;94.90;;;;;;4973074;28;20081;-89
2021/01/04 05:40:58;;;;;;;9.75;6.03;;;2.80;94.90;;;;;;5006182;28;20478;-88
2021/01/04 05:44:05;;;;;;;8.80;5.78;;;2.80;94.90;;;;;;4974169;28;20361;-90
2021/01/04 05:46:45;;;;;;;11.45;7.38;;;2.80;94.90;;;;;;5005655;28;20497;-90
2021/01/04 05:49:30;;;;;;;11.07;6.80;;;2.80;95.00;;;;;;4977385;28;20034;-89
2021/01/04 05:51:56;;;;;;;8.25;6.07;;;2.80;95.00;;;;;;4975558;28;20034;-90
2021/01/04 05:54:34;;;;;;;10.88;7.10;;;2.90;95.10;;;;;;4976570;28;20527;-89
2021/01/04 05:57:18;;;;;;;10.50;6.22;;;2.90;95.00;;;;;;4974146;28;20483;-89
2021/01/04 05:59:49;;;;;;;10.13;6.45;;;2.90;95.10;;;;;;4971766;28;20494;-89
2021/01/04 06:02:34;;;;;;;11.05;7.28;;;2.90;95.10;;;;;;4970505;28;20122;-90
2021/01/04 06:05:15;;;;;;;11.57;6.07;;;2.90;95.10;;;;;;4971081;28;20372;-90
2021/01/04 06:07:44;;;;;;;9.30;5.55;;;2.90;95.10;;;;;;4972701;28;20434;-89
2021/01/04 06:10:44;;;;;;;11.50;7.10;;;2.90;95.20;;;;;;4974059;28;20059;-89
2021/01/04 06:13:20;;;;;;;11.25;6.20;;;2.90;95.20;;;;;;4974783;28;20038;-89
2021/01/04 06:15:46;;;;;;;12.30;7.65;;;2.90;95.20;;;;;;4984617;28;20100;-89
2021/01/04 06:18:25;;;;;;;11.32;6.70;;;2.90;95.20;;;;;;4983690;28;20491;-89
2021/01/04 06:20:53;;;;;;;9.98;6.07;;;2.90;95.20;;;;;;4970715;28;20061;-90
2021/01/04 06:23:25;;;;;;;10.25;6.72;;;3.00;95.20;;;;;;4974807;28;20031;-89
2021/01/04 06:25:56;;;;;;;10.93;5.85;;;3.00;95.20;;;;;;5017108;28;20035;-89
2021/01/04 06:28:22;;;;;;;10.50;6.43;;;3.00;95.20;;;;;;4974064;28;20081;-90
2021/01/04 06:30:59;;;;;;;8.93;5.68;;;3.00;95.20;;;;;;4977026;28;20023;-90
2021/01/04 06:33:29;;;;;;;9.20;6.00;;;3.00;95.20;;;;;;4989679;28;20030;-89
2021/01/04 06:36:04;;;;;;;9.07;5.80;;;3.00;95.10;;;;;;4978402;28;20121;-90
2021/01/04 06:38:33;;;;;;;6.90;4.72;;;3.10;95.10;;;;;;4971677;28;20039;-90
2021/01/04 06:41:14;;;;;;;8.45;5.50;;;3.00;95.00;;;;;;4976022;28;20023;-89
2021/01/04 06:43:39;;;;;;;6.97;4.75;;;3.00;95.00;;;;;;4977084;28;20057;-90
2021/01/04 06:46:32;;;;;;;7.45;4.80;;;3.00;94.90;;;;;;4976853;28;20038;-91
2021/01/04 06:49:18;;;;;;;7.82;4.85;;;3.00;94.90;;;;;;4962006;28;20058;-89
2021/01/04 06:52:02;;;;;;;8.02;4.88;;;3.00;94.80;;;;;;4969457;28;20114;-90
2021/01/04 06:54:50;;;;;;;5.93;3.97;;;3.00;94.80;;;;;;5016062;28;20093;-91
2021/01/04 06:57:37;;;;;;;8.00;4.40;;;3.00;94.80;;;;;;4984262;28;20042;-90
2021/01/04 07:00:09;;;;;;;6.03;4.22;;;2.90;94.80;;;;;;5007593;28;20491;-88
2021/01/04 07:02:48;;;;;;;10.80;5.85;;;2.90;94.70;;;;;;4984134;28;20031;-89
2021/01/04 07:05:32;;;;;;;7.75;4.60;;;2.90;94.80;;;;;;4976717;28;20089;-89
2021/01/04 07:08:07;;;;;;;5.75;3.88;;;2.90;94.70;;;;;;4976786;28;20023;-89
2021/01/04 07:11:18;;;;;;;6.70;4.30;;;2.90;94.80;;;;;;4972880;28;20098;-89
2021/01/04 07:14:01;;;;;;;7.90;5.00;;;2.90;94.80;;;;;;4960714;28;20035;-89
2021/01/04 07:16:42;;;;;;;8.48;5.00;;;2.90;94.80;;;;;;4975440;28;20121;-89
2021/01/04 07:19:45;;;;;;;6.88;4.57;;;2.90;94.90;;;;;;5007696;28;20050;-89
2021/01/04 07:22:18;;;;;;;;;;;2.90;94.90;;;;;;4974622;28;20039;-90
2021/01/04 07:25:00;;;;;;;6.78;3.95;;;2.90;95.00;;;;;;4988805;28;19993;-89
2021/01/04 07:27:45;;;;;;;;;;;2.90;95.00;;;;;;4992642;28;20038;-89
2021/01/04 07:30:16;;;;;;;10.38;5.18;;;2.90;95.00;;;;;;4974427;28;19910;-89
2021/01/04 07:32:49;;;;;;;9.60;5.70;;;2.90;95.00;;;;;;4976990;28;20031;-91
2021/01/04 07:35:14;;;;;;;;;;;2.90;95.00;;;;;;4976780;28;20050;-90
2021/01/04 07:38:17;;;;;;;9.20;5.35;;;2.90;95.00;;;;;;4972244;28;19910;-90
2021/01/04 07:41:23;;;;;;;9.82;5.45;;;2.90;95.00;;;;;;4974695;28;20570;-90
2021/01/04 07:44:14;;;;;;;7.85;3.88;;;2.90;95.00;;;;;;4970778;28;20051;-90
2021/01/04 07:47:20;;;;;;;10.15;5.90;;;2.90;95.10;;;;;;4975577;28;20070;-90
2021/01/04 07:50:06;;;;;;;10.85;6.45;;;2.90;95.10;;;;;;4975657;28;20453;-89
2021/01/04 07:53:05;;;;;;;9.82;5.80;;;2.90;95.10;;;;;;4976712;28;20058;-87
2021/01/04 07:56:00;;;;;;;8.63;5.25;;;3.00;95.10;;;;;;4976811;28;20027;-88
2021/01/04 07:59:05;;;;;;;8.35;5.50;;;3.00;95.10;;;;;;4975967;28;20077;-88
2021/01/04 08:01:39;;;;;;;10.73;5.60;;;3.00;95.40;;;;;;4970634;28;20055;-90
2021/01/04 08:04:24;;;;;;;9.75;5.63;;;3.00;95.20;;;;;;4991608;28;20027;-91
2021/01/04 08:07:19;;;;;;;10.82;5.88;;;3.00;95.20;;;;;;4976127;28;20030;-91
2021/01/04 08:10:03;;;;;;;10.30;5.60;;;3.10;95.20;;;;;;4992218;28;20023;-89
2021/01/04 08:12:32;;;;;;;10.05;5.13;;;3.10;95.20;;;;;;4987596;28;20030;-91
2021/01/04 08:15:02;;;;;;;11.73;6.50;;;3.10;95.20;;;;;;4989088;28;20105;-90
2021/01/04 08:17:37;;;;;;;12.07;6.25;;;3.10;95.10;;;;;;4991053;28;20027;-90
2021/01/04 08:20:05;;;;;;;13.55;7.60;;;3.20;95.20;;;;;;5007910;28;20026;-90
2021/01/04 08:23:03;;;;;;;12.93;7.13;;;3.20;95.10;;;;;;4990883;28;20053;-92
2021/01/04 08:25:40;;;;;;;10.98;6.75;;;3.20;95.10;;;;;;4975380;28;20090;-90
2021/01/04 08:28:36;;;;;;;12.95;6.88;;;3.20;95.10;;;;;;4971952;28;20038;-90
2021/01/04 08:31:30;;;;;;;12.27;7.10;;;3.20;95.10;;;;;;4988275;28;20077;-91
2021/01/04 08:34:04;;;;;;;14.05;8.05;;;3.20;95.10;;;;;;4988314;28;20517;-90
2021/01/04 08:36:49;;;;;;;13.80;7.63;;;3.20;95.10;;;;;;4997543;28;20035;-90
2021/01/04 08:39:22;;;;;;;14.93;8.95;;;3.20;95.10;;;;;;4974507;28;20029;-91
2021/01/04 08:42:03;;;;;;;15.05;8.68;;;3.20;95.10;;;;;;5007051;28;20093;-89
2021/01/04 08:44:30;;;;;;;18.13;8.70;;;3.20;95.10;;;;;;4974565;28;20368;-90
2021/01/04 08:47:14;;;;;;;15.63;8.93;;;3.20;95.10;;;;;;4974637;28;20027;-91
2021/01/04 08:49:43;;;;;;;16.63;9.70;;;3.30;95.10;;;;;;4989574;28;20061;-91
2021/01/04 08:52:15;;;;;;;14.98;9.45;;;3.30;95.10;;;;;;4974811;28;20060;-90
2021/01/04 08:54:43;;;;;;;16.02;8.48;;;3.30;95.10;;;;;;4973147;28;20118;-90
2021/01/04 08:57:18;;;;;;;15.68;9.05;;;3.30;95.10;;;;;;4975948;28;20042;-89
2021/01/04 09:00:01;;;;;;;13.13;8.00;;;3.30;95.10;;;;;;4987239;28;20062;-90
2021/01/04 09:02:39;;;;;;;18.30;9.98;;;3.40;95.10;;;;;;4971721;28;20514;-90
2021/01/04 09:05:08;;;;;;;14.80;7.43;;;3.30;95.00;;;;;;4966937;28;20066;-90
2021/01/04 09:07:45;;;;;;;13.90;8.65;;;3.40;95.10;;;;;;4982903;28;20091;-89
2021/01/04 09:10:23;;;;;;;13.30;7.72;;;3.40;95.10;;;;;;4970085;28;20030;-89
2021/01/04 09:12:52;;;;;;;13.63;8.50;;;3.50;95.00;;;;;;4973493;28;20023;-90
2021/01/04 09:15:20;;;;;;;13.18;7.75;;;3.60;95.00;;;;;;4973921;28;20154;-90
2021/01/04 09:17:48;;;;;;;12.68;7.28;;;3.60;94.90;;;;;;4974738;28;20023;-90
2021/01/04 09:20:23;;;;;;;10.82;5.78;;;3.60;94.70;;;;;;4973187;28;20030;-91
2021/01/04 09:23:03;;;;;;;12.20;7.35;;;3.60;94.60;;;;;;5007272;28;20034;-89
2021/01/04 09:25:46;;;;;;;12.60;7.25;;;3.70;94.60;;;;;;4975125;28;20033;-88
2021/01/04 09:28:14;;;;;;;12.73;8.02;;;3.70;94.60;;;;;;5007289;28;20031;-89
2021/01/04 09:30:40;;;;;;;15.35;7.85;;;3.70;94.50;;;;;;4974348;28;20059;-88
2021/01/04 09:33:13;;;;;;;13.75;7.75;;;3.70;94.50;;;;;;4975273;28;20030;-90
2021/01/04 09:35:38;;;;;;;;;;;3.70;94.50;;;;;;4968548;28;20499;-89
2021/01/04 09:38:08;;;;;;;10.75;6.25;;;3.70;94.60;;;;;;4973381;28;19906;-89
2021/01/04 09:40:36;;;;;;;8.45;5.35;;;3.80;94.50;;;;;;4974235;28;20527;-90
2021/01/04 09:43:11;;;;;;;10.70;5.68;;;3.80;94.40;;;;;;4975249;28;20074;-89
2021/01/04 09:45:37;;;;;;;10.25;5.07;;;3.70;94.40;;;;;;4981939;28;20055;-92
2021/01/04 09:48:07;;;;;;;7.82;3.85;;;3.70;94.40;;;;;;4961755;28;20393;-92
2021/01/04 09:50:41;;;;;;;9.68;4.57;;;3.70;94.20;;;;;;4974447;28;20023;-90
2021/01/04 09:53:20;;;;;;;8.48;4.95;;;3.60;94.20;;;;;;4973415;28;20027;-90
2021/01/04 09:55:47;;;;;;;6.72;2.78;;;3.60;94.20;;;;;;5007114;28;20043;-91
2021/01/04 09:58:19;;;;;;;9.13;5.05;;;3.50;94.20;;;;;;4972725;28;20027;-90
2021/01/04 10:00:45;;;;;;;7.85;4.18;;;3.40;94.10;;;;;;4983469;28;20078;-89
2021/01/04 10:03:14;;;;;;;8.77;4.97;;;3.40;94.20;;;;;;4973908;28;20034;-89
2021/01/04 10:05:45;;;;;;;8.55;5.18;;;3.30;94.20;;;;;;4971830;28;20038;-90
2021/01/04 10:08:15;;;;;;;7.78;4.35;;;3.30;94.30;;;;;;4975082;28;20031;-90
2021/01/04 10:11:00;;;;;;;10.57;5.07;;;3.30;94.40;;;;;;4973849;28;20027;-90
2021/01/04 10:13:28;;;;;;;10.75;5.30;;;3.20;94.40;;;;;;4973726;28;20033;-90
2021/01/04 10:15:55;;;;;;;10.20;5.80;;;3.30;94.60;;;;;;4989555;28;20037;-90
2021/01/04 10:18:36;;;;;;;10.38;6.25;;;3.30;94.60;;;;;;4969978;28;20031;-90
2021/01/04 10:21:04;;;;;;;13.18;6.68;;;3.30;94.70;;;;;;4967491;28;20122;-90
2021/01/04 10:23:35;;;;;;;11.65;6.13;;;3.30;94.70;;;;;;4973453;28;20023;-90
2021/01/04 10:26:02;;;;;;;11.68;6.30;;;3.40;94.70;;;;;;4968651;28;20634;-90
2021/01/04 10:28:33;;;;;;;11.80;7.15;;;3.40;94.70;;;;;;4976943;28;20399;-90
2021/01/04 10:31:14;;;;;;;11.43;5.78;;;3.50;94.70;;;;;;4977740;28;20030;-90
2021/01/04 10:33:40;;;;;;;14.43;8.10;;;3.50;94.70;;;;;;5005871;28;20034;-89
2021/01/04 10:36:16;;;;;;;15.50;8.45;;;3.50;94.70;;;;;;4975879;28;20100;-90
2021/01/04 10:38:45;;;;;;;13.20;8.32;;;3.60;94.80;;;;;;4963174;28;20042;-90
2021/01/04 10:41:13;;;;;;;15.43;9.00;;;3.60;94.80;;;;;;4960680;28;20439;-89
2021/01/04 10:43:39;;;;;;;14.63;8.25;;;3.60;94.80;;;;;;4979346;28;20026;-89
2021/01/04 10:46:40;;;;;;;18.63;9.15;;;3.60;94.80;;;;;;4989913;28;20405;-89
2021/01/04 10:49:09;;;;;;;20.02;9.45;;;3.70;94.80;;;;;;4939651;28;20047;-89
2021/01/04 10:51:39;;;;;;;17.92;9.55;;;3.70;94.80;;;;;;4974440;28;20095;-90
2021/01/04 10:54:16;;;;;;;14.23;8.48;;;3.70;94.80;;;;;;4971663;28;20031;-89
2021/01/04 10:56:52;;;;;;;17.23;9.27;;;3.80;94.80;;;;;;4975789;28;20039;-90
2021/01/04 10:59:27;;;;;;;15.15;8.98;;;3.80;94.80;;;;;;4976969;28;20035;-89
2021/01/04 11:01:55;;;;;;;16.08;9.68;;;3.80;94.80;;;;;;4975514;28;20045;-89
2021/01/04 11:04:21;;;;;;;16.73;9.10;;;3.80;94.80;;;;;;4976423;28;20114;-90
2021/01/04 11:07:03;;;;;;;19.05;9.48;;;3.80;94.70;;;;;;4972252;28;20030;-90
2021/01/04 11:09:32;;;;;;;17.17;10.30;;;3.90;94.80;;;;;;4986199;28;20027;-89
2021/01/04 11:12:13;;;;;;;18.13;9.73;;;3.90;94.80;;;;;;4977390;28;20030;-89
2021/01/04 11:14:51;;;;;;;14.65;8.57;;;4.00;94.80;;;;;;4973089;28;20026;-89
2021/01/04 11:17:24;;;;;;;13.88;8.05;;;4.00;94.80;;;;;;4978074;28;20102;-90
2021/01/04 11:19:50;;;;;;;15.07;8.85;;;4.00;94.70;;;;;;4969792;28;20090;-89
2021/01/04 11:22:23;;;;;;;16.77;10.55;;;4.00;94.60;;;;;;4966850;28;20492;-89
2021/01/04 11:24:49;;;;;;;18.35;9.52;;;4.00;94.60;;;;;;4972389;28;20496;-89
2021/01/04 11:27:16;;;;;;;13.98;9.20;;;4.00;94.50;;;;;;4973313;28;20030;-89
2021/01/04 11:29:43;;;;;;;14.50;8.85;;;3.90;94.50;;;;;;4976628;28;20034;-89
2021/01/04 11:32:10;;;;;;;12.10;7.70;;;3.90;94.50;;;;;;4972989;28;20555;-91
2021/01/04 11:34:36;;;;;;;14.45;9.00;;;3.90;94.50;;;;;;4976744;28;20030;-88
2021/01/04 11:37:02;;;;;;;16.13;8.52;;;3.90;94.40;;;;;;4977075;28;20033;-90
2021/01/04 11:39:28;;;;;;;14.02;8.57;;;3.90;94.40;;;;;;4972149;28;20074;-90
2021/01/04 11:41:54;;;;;;;13.48;7.95;;;3.80;94.20;;;;;;4976228;28;20026;-89
2021/01/04 11:44:19;;;;;;;13.70;8.10;;;3.80;94.30;;;;;;4974215;28;20161;-91
2021/01/04 11:46:45;;;;;;;13.95;7.90;;;3.80;94.20;;;;;;4975977;28;20058;-90
2021/01/04 11:49:11;;;;;;;16.23;8.18;;;3.80;94.20;;;;;;4977323;28;20031;-91
2021/01/04 11:51:37;;;;;;;9.50;5.95;;;3.80;94.20;;;;;;4976077;28;20112;-91
2021/01/04 11:54:06;;;;;;;15.13;7.85;;;3.80;94.10;;;;;;4974735;28;20027;-91
2021/01/04 11:56:31;;;;;;;9.77;6.95;;;3.80;94.10;;;;;;4969559;28;20125;-91
2021/01/04 11:58:57;;;;;;;10.27;6.30;;;3.80;94.10;;;;;;4968596;28;20023;-92
2021/01/04 12:01:25;;;;;;;11.70;6.93;;;3.80;94.10;;;;;;4975819;28;20047;-91
2021/01/04 12:03:51;;;;;;;10.95;6.45;;;3.70;94.00;;;;;;4976321;28;20023;-92
2021/01/04 12:06:16;;;;;;;11.93;5.82;;;3.70;94.00;;;;;;4975206;28;20073;-91
2021/01/04 12:08:42;;;;;;;11.50;6.35;;;3.70;94.00;;;;;;4990676;28;20023;-91
2021/01/04 12:11:07;;;;;;;12.68;7.13;;;3.70;94.00;;;;;;4975828;28;20031;-91
2021/01/04 12:13:33;;;;;;;12.75;7.10;;;3.80;94.00;;;;;;4976948;28;20023;-92
2021/01/04 12:15:59;;;;;;;11.85;6.97;;;3.80;94.00;;;;;;4972270;28;20047;-89
2021/01/04 12:18:25;;;;;;;11.82;6.30;;;3.80;94.00;;;;;;4974464;28;20055;-91
2021/01/04 12:20:50;;;;;;;9.60;5.70;;;3.80;94.00;;;;;;4986460;28;20045;-90
2021/01/04 12:23:16;;;;;;;9.50;5.10;;;3.80;94.00;;;;;;4977974;28;20124;-90
2021/01/04 12:25:42;;;;;;;8.15;4.95;;;3.80;93.90;;;;;;4975548;28;20041;-90
2021/01/04 12:28:09;;;;;;;8.35;5.20;;;3.80;93.90;;;;;;4975807;28;20379;-92
2021/01/04 12:30:35;;;;;;;7.88;5.13;;;3.80;93.90;;;;;;4974608;28;20029;-87
2021/01/04 12:33:00;;;;;;;9.52;5.13;;;3.80;93.80;;;;;;4971401;28;20039;-91
2021/01/04 12:35:27;;;;;;;9.75;6.15;;;3.80;93.80;;;;;;4973893;28;20043;-91
2021/01/04 12:37:53;;;;;;;8.93;5.35;;;3.80;93.80;;;;;;4975016;28;20050;-90
2021/01/04 12:40:25;;;;;;;11.07;5.75;;;3.80;93.80;;;;;;4974189;28;20037;-90
2021/01/04 12:42:50;;;;;;;9.82;5.68;;;3.80;93.80;;;;;;4974252;28;20454;-89
2021/01/04 12:45:17;;;;;;;9.60;6.57;;;3.80;93.80;;;;;;4974715;28;20053;-90
2021/01/04 12:47:43;;;;;;;6.97;5.00;;;3.80;93.70;;;;;;4975387;28;20384;-91
2021/01/04 12:50:09;;;;;;;8.63;5.28;;;3.80;93.60;;;;;;4975875;28;20050;-91
2021/01/04 12:52:34;;;;;;;9.00;5.10;;;3.80;93.50;;;;;;4973769;28;20031;-90
2021/01/04 12:55:00;;;;;;;8.65;5.03;;;3.80;93.50;;;;;;4974547;28;20034;-89
2021/01/04 12:57:25;;;;;;;7.53;5.38;;;3.70;93.40;;;;;;4975395;28;20034;-91
2021/01/04 12:59:51;;;;;;;7.05;4.78;;;3.80;93.50;;;;;;4974409;28;20042;-91
2021/01/04 13:02:18;;;;;;;10.73;5.00;;;3.80;93.50;;;;;;4975066;28;20480;-90
2021/01/04 13:04:44;;;;;;;8.48;4.95;;;3.80;93.40;;;;;;4973672;28;20499;-90
2021/01/04 13:07:10;;;;;;;7.40;4.47;;;3.80;93.10;;;;;;4990725;28;20035;-90
2021/01/04 13:09:36;;;;;;;8.85;4.63;;;3.70;93.10;;;;;;4972370;28;20023;-90
2021/01/04 13:12:02;;;;;;;6.80;4.40;;;3.70;93.10;;;;;;4974510;28;20074;-92
2021/01/04 13:14:28;;;;;;;6.25;4.35;;;3.70;93.10;;;;;;4961454;28;20035;-90
2021/01/04 13:16:53;;;;;;;7.07;4.45;;;3.70;93.00;;;;;;4964737;28;20039;-91
2021/01/04 13:19:19;;;;;;;7.15;4.63;;;3.70;93.00;;;;;;4974287;28;20034;-90
2021/01/04 13:21:45;;;;;;;8.38;4.30;;;3.70;92.90;;;;;;4974221;28;20074;-90
2021/01/04 13:24:14;;;;;;;8.93;3.88;;;3.70;92.90;;;;;;4988454;28;20031;-90
2021/01/04 13:26:48;;;;;;;6.65;4.28;;;3.70;92.90;;;;;;4974731;28;20027;-91
2021/01/04 13:29:16;;;;;;;5.30;3.63;;;3.70;92.90;;;;;;4974155;28;20038;-91
2021/01/04 13:31:41;;;;;;;6.07;3.95;;;3.70;92.90;;;;;;4990389;28;20038;-91
2021/01/04 13:34:07;;;;;;;5.70;3.70;;;3.70;92.90;;;;;;4974850;28;20019;-91
2021/01/04 13:36:34;;;;;;;6.95;4.45;;;3.70;92.80;;;;;;4973577;28;20039;-91